createdAt,value
2022-12-19T00:00:53.109Z,-8.69
2022-12-19T00:11:08.068Z,-8.73
2022-12-19T00:21:23.172Z,-9.02
2022-12-19T00:31:38.194Z,-9.07
2022-12-19T00:41:51.126Z,-9.04
2022-12-19T00:52:05.079Z,-8.95
2022-12-19T01:02:18.281Z,-8.91
2022-12-19T01:12:50.080Z,-8.94
2022-12-19T01:23:03.159Z,-8.95
2022-12-19T01:33:18.113Z,-9.06
2022-12-19T01:43:32.146Z,-9.18
2022-12-19T01:53:52.120Z,-9.24
2022-12-19T02:04:06.134Z,-9.20
2022-12-19T02:14:19.100Z,-9.29
2022-12-19T02:25:08.172Z,-9.29
2022-12-19T02:35:40.116Z,-9.34
2022-12-19T02:45:53.236Z,-9.39
2022-12-19T02:56:13.153Z,-9.41
2022-12-19T03:06:34.213Z,-9.32
2022-12-19T03:16:47.204Z,-9.39
2022-12-19T03:27:03.230Z,-9.51
2022-12-19T03:37:22.187Z,-9.63
2022-12-19T03:47:56.224Z,-9.78
2022-12-19T03:58:14.218Z,-9.86
2022-12-19T04:08:26.238Z,-9.93
2022-12-19T04:18:39.226Z,-10.10
2022-12-19T04:29:04.272Z,-9.87
2022-12-19T04:39:17.214Z,-9.93
2022-12-19T04:49:30.273Z,-9.97
2022-12-19T04:59:43.217Z,-10.11
2022-12-19T05:09:56.276Z,-10.05
2022-12-19T05:20:16.248Z,-10.28
2022-12-19T05:30:31.294Z,-10.34
2022-12-19T05:40:44.253Z,-10.24
2022-12-19T05:50:58.283Z,-10.26
2022-12-19T06:01:36.307Z,-10.39
2022-12-19T06:11:49.348Z,-10.35
2022-12-19T06:22:02.262Z,-10.47
2022-12-19T06:32:15.311Z,-10.47
2022-12-19T06:42:31.257Z,-10.41
2022-12-19T06:52:44.311Z,-10.56
2022-12-19T07:02:58.363Z,-10.63
2022-12-19T07:13:12.304Z,-10.55
2022-12-19T07:23:26.320Z,-10.46
2022-12-19T07:33:39.314Z,-10.02
2022-12-19T07:43:53.330Z,-9.51
2022-12-19T07:54:06.321Z,-9.02
2022-12-19T08:04:19.347Z,-8.24
2022-12-19T08:14:32.320Z,-7.36
2022-12-19T08:24:45.379Z,-7.92
2022-12-19T08:34:58.341Z,-6.92
2022-12-19T08:45:11.354Z,-6.58
2022-12-19T08:55:24.359Z,-5.19
2022-12-19T09:06:04.030Z,-4.50
2022-12-19T09:16:28.456Z,-4.84
2022-12-19T09:26:41.377Z,-4.83
2022-12-19T09:36:54.386Z,-4.41
2022-12-19T09:47:09.377Z,-3.27
2022-12-19T09:57:32.390Z,-3.61
2022-12-19T10:08:07.864Z,-4.08
2022-12-19T10:18:38.377Z,-3.63
2022-12-19T10:29:09.423Z,-4.69
2022-12-19T10:39:31.390Z,-4.29
2022-12-19T10:49:42.419Z,-3.56
2022-12-19T11:00:08.418Z,-4.12
2022-12-19T11:12:25.936Z,-4.61
2022-12-19T11:29:55.167Z,-3.82
2022-12-19T11:32:48.856Z,-2.98
2022-12-19T11:43:46.062Z,-2.23
2022-12-19T11:54:04.466Z,-2.80
2022-12-19T12:04:20.485Z,-2.68
2022-12-19T12:27:50.095Z,-3.72
2022-12-19T12:31:47.318Z,-2.93
2022-12-19T12:47:32.457Z,-2.91
2022-12-19T12:57:46.509Z,-3.14
2022-12-19T13:08:01.461Z,-3.36
2022-12-19T13:18:37.542Z,-4.06
2022-12-19T13:28:56.504Z,-3.76
2022-12-19T13:40:00.880Z,-3.82
2022-12-19T13:49:42.545Z,-4.03
2022-12-19T13:59:59.692Z,-3.92
2022-12-19T14:11:32.564Z,-4.17
2022-12-19T14:22:07.203Z,-4.79
2022-12-19T14:31:31.603Z,-4.84
2022-12-19T14:42:10.525Z,-5.04
2022-12-19T14:54:28.466Z,-5.55
2022-12-19T15:03:37.792Z,-5.50
2022-12-19T15:14:54.921Z,-5.71
2022-12-19T15:24:32.583Z,-5.76
2022-12-19T15:34:51.679Z,-5.97
2022-12-19T15:45:07.571Z,-6.02
2022-12-19T15:55:24.579Z,-5.93
2022-12-19T16:05:37.615Z,-5.65
2022-12-19T16:15:50.595Z,-5.81
2022-12-19T16:26:03.636Z,-5.93
2022-12-19T16:36:17.599Z,-5.79
2022-12-19T16:46:38.685Z,-6.10
2022-12-19T16:56:57.571Z,-6.04
2022-12-19T17:07:10.637Z,-6.07
2022-12-19T17:17:23.597Z,-6.38
2022-12-19T17:27:36.643Z,-4.93
2022-12-19T17:37:49.612Z,-3.02
2022-12-19T17:48:03.289Z,-2.31
2022-12-19T17:58:17.763Z,-1.91
2022-12-19T18:08:40.653Z,-1.60
2022-12-19T18:18:53.644Z,-1.37
2022-12-19T18:29:06.730Z,-1.28
2022-12-19T18:39:31.628Z,-1.14
2022-12-19T18:49:45.711Z,-1.12
2022-12-19T18:59:58.675Z,-0.98
2022-12-19T19:10:23.702Z,-0.88
2022-12-19T19:20:45.646Z,-0.81
2022-12-19T19:30:58.752Z,-0.73
2022-12-19T19:41:11.683Z,-0.67
2022-12-19T19:51:24.757Z,-0.63
2022-12-19T20:01:36.833Z,-0.51
2022-12-19T20:11:56.736Z,-0.51
2022-12-19T20:22:09.729Z,-0.43
2022-12-19T20:32:22.744Z,-0.35
2022-12-19T20:42:36.709Z,-0.31
2022-12-19T20:52:49.752Z,-0.29
2022-12-19T21:13:36.776Z,-0.21
2022-12-19T21:23:49.728Z,-0.16
2022-12-19T21:34:07.781Z,-0.03
2022-12-19T21:44:20.760Z,0.03
2022-12-19T21:54:33.790Z,0.07
2022-12-19T22:04:46.768Z,0.11
2022-12-19T22:14:59.803Z,0.15
2022-12-19T22:25:12.775Z,0.26
2022-12-19T22:35:25.807Z,0.20
2022-12-19T22:45:38.821Z,0.27
2022-12-19T22:55:51.828Z,0.30
2022-12-19T23:06:04.781Z,0.36
2022-12-19T23:16:17.890Z,0.36
2022-12-19T23:26:33.794Z,0.40
2022-12-19T23:47:19.854Z,0.39
2022-12-19T23:57:32.830Z,0.36
